sensor_id;sensor_type;location;lat;lon;timestamp;P1;durP1;ratioP1;P2;durP2;ratioP2
7557;SDS011;3820;51.098;13.716;2023-06-10T00:01:10;7.00;;;5.55;;
7557;SDS011;3820;51.098;13.716;2023-06-10T00:03:37;8.95;;;5.68;;
7557;SDS011;3820;51.098;13.716;2023-06-10T00:06:04;7.72;;;5.13;;
7557;SDS011;3820;51.098;13.716;2023-06-10T00:08:31;6.80;;;5.22;;
7557;SDS011;3820;51.098;13.716;2023-06-10T00:11:00;7.55;;;5.38;;
7557;SDS011;3820;51.098;13.716;2023-06-10T00:13:26;7.22;;;5.10;;
7557;SDS011;3820;51.098;13.716;2023-06-10T00:15:53;6.90;;;4.80;;
7557;SDS011;3820;51.098;13.716;2023-06-10T00:18:19;5.88;;;4.32;;
7557;SDS011;3820;51.098;13.716;2023-06-10T00:20:48;6.05;;;4.70;;
7557;SDS011;3820;51.098;13.716;2023-06-10T00:23:19;6.22;;;4.68;;
7557;SDS011;3820;51.098;13.716;2023-06-10T00:25:46;6.30;;;4.55;;
7557;SDS011;3820;51.098;13.716;2023-06-10T00:28:12;4.82;;;3.95;;
7557;SDS011;3820;51.098;13.716;2023-06-10T00:30:39;5.40;;;4.57;;
7557;SDS011;3820;51.098;13.716;2023-06-10T00:33:06;5.22;;;4.38;;
7557;SDS011;3820;51.098;13.716;2023-06-10T00:35:33;5.40;;;4.60;;
7557;SDS011;3820;51.098;13.716;2023-06-10T00:41:47;6.50;;;4.97;;
7557;SDS011;3820;51.098;13.716;2023-06-10T00:44:14;6.22;;;4.78;;
7557;SDS011;3820;51.098;13.716;2023-06-10T00:46:40;7.30;;;5.72;;
7557;SDS011;3820;51.098;13.716;2023-06-10T00:49:07;6.53;;;4.97;;
7557;SDS011;3820;51.098;13.716;2023-06-10T00:51:34;8.13;;;5.80;;
7557;SDS011;3820;51.098;13.716;2023-06-10T00:54:02;7.25;;;5.55;;
7557;SDS011;3820;51.098;13.716;2023-06-10T00:56:29;7.10;;;5.47;;
7557;SDS011;3820;51.098;13.716;2023-06-10T00:58:56;7.53;;;5.65;;
7557;SDS011;3820;51.098;13.716;2023-06-10T01:01:23;7.60;;;5.50;;
7557;SDS011;3820;51.098;13.716;2023-06-10T01:03:50;8.02;;;5.53;;
7557;SDS011;3820;51.098;13.716;2023-06-10T01:06:30;7.25;;;5.72;;
7557;SDS011;3820;51.098;13.716;2023-06-10T01:09:18;7.57;;;6.32;;
7557;SDS011;3820;51.098;13.716;2023-06-10T01:12:02;7.40;;;5.47;;
7557;SDS011;3820;51.098;13.716;2023-06-10T01:14:35;7.90;;;5.88;;
7557;SDS011;3820;51.098;13.716;2023-06-10T01:17:02;7.05;;;5.47;;
7557;SDS011;3820;51.098;13.716;2023-06-10T01:19:29;7.70;;;5.80;;
7557;SDS011;3820;51.098;13.716;2023-06-10T01:21:58;7.97;;;5.88;;
7557;SDS011;3820;51.098;13.716;2023-06-10T01:24:27;9.23;;;5.65;;
7557;SDS011;3820;51.098;13.716;2023-06-10T01:26:55;8.65;;;6.05;;
7557;SDS011;3820;51.098;13.716;2023-06-10T01:29:28;8.23;;;5.93;;
7557;SDS011;3820;51.098;13.716;2023-06-10T01:32:03;7.97;;;5.68;;
7557;SDS011;3820;51.098;13.716;2023-06-10T01:34:39;7.22;;;5.68;;
7557;SDS011;3820;51.098;13.716;2023-06-10T01:37:11;7.53;;;5.57;;
7557;SDS011;3820;51.098;13.716;2023-06-10T01:39:40;7.90;;;5.40;;
7557;SDS011;3820;51.098;13.716;2023-06-10T01:42:07;7.68;;;6.05;;
7557;SDS011;3820;51.098;13.716;2023-06-10T01:44:35;8.07;;;5.93;;
7557;SDS011;3820;51.098;13.716;2023-06-10T01:47:02;6.68;;;5.38;;
7557;SDS011;3820;51.098;13.716;2023-06-10T01:49:28;8.40;;;6.07;;
7557;SDS011;3820;51.098;13.716;2023-06-10T01:51:55;8.38;;;5.55;;
7557;SDS011;3820;51.098;13.716;2023-06-10T01:54:22;7.72;;;5.75;;
7557;SDS011;3820;51.098;13.716;2023-06-10T01:56:48;7.70;;;5.88;;
7557;SDS011;3820;51.098;13.716;2023-06-10T01:59:15;7.10;;;5.47;;
7557;SDS011;3820;51.098;13.716;2023-06-10T02:01:42;8.52;;;5.70;;
7557;SDS011;3820;51.098;13.716;2023-06-10T02:04:09;7.70;;;6.57;;
7557;SDS011;3820;51.098;13.716;2023-06-10T02:06:36;7.18;;;6.03;;
7557;SDS011;3820;51.098;13.716;2023-06-10T02:09:04;8.90;;;6.35;;
7557;SDS011;3820;51.098;13.716;2023-06-10T02:11:30;8.60;;;6.80;;
7557;SDS011;3820;51.098;13.716;2023-06-10T02:13:57;8.77;;;6.35;;
7557;SDS011;3820;51.098;13.716;2023-06-10T02:16:23;9.02;;;6.88;;
7557;SDS011;3820;51.098;13.716;2023-06-10T02:18:51;9.43;;;6.50;;
7557;SDS011;3820;51.098;13.716;2023-06-10T02:21:18;9.48;;;7.22;;
7557;SDS011;3820;51.098;13.716;2023-06-10T02:23:45;8.45;;;6.55;;
7557;SDS011;3820;51.098;13.716;2023-06-10T02:26:11;10.90;;;7.13;;
7557;SDS011;3820;51.098;13.716;2023-06-10T02:28:38;10.55;;;6.97;;
7557;SDS011;3820;51.098;13.716;2023-06-10T02:31:05;10.52;;;7.20;;
7557;SDS011;3820;51.098;13.716;2023-06-10T02:33:31;9.95;;;7.20;;
7557;SDS011;3820;51.098;13.716;2023-06-10T02:36:00;9.70;;;7.47;;
7557;SDS011;3820;51.098;13.716;2023-06-10T02:38:27;9.93;;;7.07;;
7557;SDS011;3820;51.098;13.716;2023-06-10T02:40:53;9.05;;;7.05;;
7557;SDS011;3820;51.098;13.716;2023-06-10T02:43:20;10.00;;;7.03;;
7557;SDS011;3820;51.098;13.716;2023-06-10T02:45:47;10.98;;;7.10;;
7557;SDS011;3820;51.098;13.716;2023-06-10T02:48:14;10.57;;;6.80;;
7557;SDS011;3820;51.098;13.716;2023-06-10T02:50:41;10.57;;;7.43;;
7557;SDS011;3820;51.098;13.716;2023-06-10T02:53:07;10.80;;;7.85;;
7557;SDS011;3820;51.098;13.716;2023-06-10T02:55:34;10.77;;;7.28;;
7557;SDS011;3820;51.098;13.716;2023-06-10T02:58:01;10.93;;;7.72;;
7557;SDS011;3820;51.098;13.716;2023-06-10T03:00:29;10.80;;;7.53;;
7557;SDS011;3820;51.098;13.716;2023-06-10T03:02:55;10.52;;;7.22;;
7557;SDS011;3820;51.098;13.716;2023-06-10T03:05:24;11.20;;;7.85;;
7557;SDS011;3820;51.098;13.716;2023-06-10T03:07:51;13.75;;;8.40;;
7557;SDS011;3820;51.098;13.716;2023-06-10T03:10:17;12.63;;;7.55;;
7557;SDS011;3820;51.098;13.716;2023-06-10T03:12:44;11.63;;;8.38;;
7557;SDS011;3820;51.098;13.716;2023-06-10T03:15:10;10.77;;;7.70;;
7557;SDS011;3820;51.098;13.716;2023-06-10T03:17:37;10.52;;;7.15;;
7557;SDS011;3820;51.098;13.716;2023-06-10T03:20:04;11.52;;;7.85;;
7557;SDS011;3820;51.098;13.716;2023-06-10T03:22:32;10.63;;;7.82;;
7557;SDS011;3820;51.098;13.716;2023-06-10T03:24:58;11.85;;;8.65;;
7557;SDS011;3820;51.098;13.716;2023-06-10T03:27:26;9.68;;;7.05;;
7557;SDS011;3820;51.098;13.716;2023-06-10T03:29:55;9.65;;;7.60;;
7557;SDS011;3820;51.098;13.716;2023-06-10T03:32:22;14.30;;;8.63;;
7557;SDS011;3820;51.098;13.716;2023-06-10T03:34:48;12.55;;;8.35;;
7557;SDS011;3820;51.098;13.716;2023-06-10T03:37:15;11.18;;;7.53;;
7557;SDS011;3820;51.098;13.716;2023-06-10T03:39:41;12.23;;;8.30;;
7557;SDS011;3820;51.098;13.716;2023-06-10T03:42:08;11.80;;;7.82;;
7557;SDS011;3820;51.098;13.716;2023-06-10T03:44:34;11.45;;;8.02;;
7557;SDS011;3820;51.098;13.716;2023-06-10T03:47:01;12.20;;;8.20;;
7557;SDS011;3820;51.098;13.716;2023-06-10T03:49:27;11.60;;;8.25;;
7557;SDS011;3820;51.098;13.716;2023-06-10T03:51:55;13.48;;;8.77;;
7557;SDS011;3820;51.098;13.716;2023-06-10T03:54:22;12.05;;;8.43;;
7557;SDS011;3820;51.098;13.716;2023-06-10T03:56:49;11.20;;;8.32;;
7557;SDS011;3820;51.098;13.716;2023-06-10T03:59:17;12.18;;;7.72;;
7557;SDS011;3820;51.098;13.716;2023-06-10T04:01:45;12.75;;;8.95;;
7557;SDS011;3820;51.098;13.716;2023-06-10T04:04:14;11.55;;;8.93;;
7557;SDS011;3820;51.098;13.716;2023-06-10T04:06:42;11.43;;;8.20;;
7557;SDS011;3820;51.098;13.716;2023-06-10T04:09:11;11.02;;;8.38;;
7557;SDS011;3820;51.098;13.716;2023-06-10T04:11:38;11.88;;;7.18;;
7557;SDS011;3820;51.098;13.716;2023-06-10T04:14:04;10.90;;;8.10;;
7557;SDS011;3820;51.098;13.716;2023-06-10T04:16:32;13.23;;;8.40;;
7557;SDS011;3820;51.098;13.716;2023-06-10T04:18:59;10.85;;;7.70;;
7557;SDS011;3820;51.098;13.716;2023-06-10T04:21:27;11.95;;;7.95;;
7557;SDS011;3820;51.098;13.716;2023-06-10T04:23:53;10.63;;;8.05;;
7557;SDS011;3820;51.098;13.716;2023-06-10T04:26:20;11.82;;;7.75;;
7557;SDS011;3820;51.098;13.716;2023-06-10T04:28:48;12.93;;;8.55;;
7557;SDS011;3820;51.098;13.716;2023-06-10T04:31:14;11.00;;;8.07;;
7557;SDS011;3820;51.098;13.716;2023-06-10T04:33:42;11.13;;;7.72;;
7557;SDS011;3820;51.098;13.716;2023-06-10T04:36:09;10.57;;;7.28;;
7557;SDS011;3820;51.098;13.716;2023-06-10T04:38:36;12.43;;;8.35;;
7557;SDS011;3820;51.098;13.716;2023-06-10T04:41:02;10.43;;;7.97;;
7557;SDS011;3820;51.098;13.716;2023-06-10T04:43:29;11.35;;;7.85;;
7557;SDS011;3820;51.098;13.716;2023-06-10T04:45:56;12.00;;;8.63;;
7557;SDS011;3820;51.098;13.716;2023-06-10T04:48:24;14.02;;;8.20;;
7557;SDS011;3820;51.098;13.716;2023-06-10T04:50:50;12.63;;;8.65;;
7557;SDS011;3820;51.098;13.716;2023-06-10T04:53:17;12.80;;;9.15;;
7557;SDS011;3820;51.098;13.716;2023-06-10T04:55:44;10.43;;;8.40;;
7557;SDS011;3820;51.098;13.716;2023-06-10T04:58:10;12.00;;;8.57;;
7557;SDS011;3820;51.098;13.716;2023-06-10T05:00:37;12.25;;;9.10;;
7557;SDS011;3820;51.098;13.716;2023-06-10T05:03:03;10.05;;;7.82;;
7557;SDS011;3820;51.098;13.716;2023-06-10T05:05:30;13.55;;;8.38;;
7557;SDS011;3820;51.098;13.716;2023-06-10T05:07:57;12.18;;;8.65;;
7557;SDS011;3820;51.098;13.716;2023-06-10T05:10:23;11.70;;;8.63;;
7557;SDS011;3820;51.098;13.716;2023-06-10T05:12:50;11.05;;;8.63;;
7557;SDS011;3820;51.098;13.716;2023-06-10T05:15:17;9.85;;;8.07;;
7557;SDS011;3820;51.098;13.716;2023-06-10T05:17:43;10.40;;;8.27;;
7557;SDS011;3820;51.098;13.716;2023-06-10T05:20:11;11.07;;;7.47;;
7557;SDS011;3820;51.098;13.716;2023-06-10T05:22:38;8.57;;;6.97;;
7557;SDS011;3820;51.098;13.716;2023-06-10T05:25:05;10.07;;;7.35;;
7557;SDS011;3820;51.098;13.716;2023-06-10T05:27:32;9.27;;;6.82;;
7557;SDS011;3820;51.098;13.716;2023-06-10T05:29:59;8.77;;;6.30;;
7557;SDS011;3820;51.098;13.716;2023-06-10T05:32:26;9.77;;;7.28;;
7557;SDS011;3820;51.098;13.716;2023-06-10T05:34:53;8.90;;;6.18;;
7557;SDS011;3820;51.098;13.716;2023-06-10T05:37:20;9.52;;;6.88;;
7557;SDS011;3820;51.098;13.716;2023-06-10T05:39:46;11.90;;;6.63;;
7557;SDS011;3820;51.098;13.716;2023-06-10T05:42:13;9.00;;;6.20;;
7557;SDS011;3820;51.098;13.716;2023-06-10T05:44:39;8.32;;;6.28;;
7557;SDS011;3820;51.098;13.716;2023-06-10T05:47:06;8.20;;;6.05;;
7557;SDS011;3820;51.098;13.716;2023-06-10T05:49:33;7.22;;;5.53;;
7557;SDS011;3820;51.098;13.716;2023-06-10T05:52:00;6.90;;;6.00;;
7557;SDS011;3820;51.098;13.716;2023-06-10T05:54:26;9.70;;;6.38;;
7557;SDS011;3820;51.098;13.716;2023-06-10T05:56:55;8.63;;;6.47;;
7557;SDS011;3820;51.098;13.716;2023-06-10T05:59:22;7.22;;;5.78;;
7557;SDS011;3820;51.098;13.716;2023-06-10T06:01:49;8.82;;;6.45;;
7557;SDS011;3820;51.098;13.716;2023-06-10T06:04:16;8.68;;;6.32;;
7557;SDS011;3820;51.098;13.716;2023-06-10T06:06:43;8.15;;;6.15;;
7557;SDS011;3820;51.098;13.716;2023-06-10T06:09:09;9.52;;;6.13;;
7557;SDS011;3820;51.098;13.716;2023-06-10T06:11:36;7.63;;;6.10;;
7557;SDS011;3820;51.098;13.716;2023-06-10T06:14:02;7.15;;;5.50;;
7557;SDS011;3820;51.098;13.716;2023-06-10T06:16:29;7.82;;;5.75;;
7557;SDS011;3820;51.098;13.716;2023-06-10T06:18:56;8.98;;;6.20;;
7557;SDS011;3820;51.098;13.716;2023-06-10T06:21:22;7.35;;;5.55;;
7557;SDS011;3820;51.098;13.716;2023-06-10T06:23:49;7.90;;;5.93;;
7557;SDS011;3820;51.098;13.716;2023-06-10T06:26:16;7.82;;;5.93;;
7557;SDS011;3820;51.098;13.716;2023-06-10T06:28:42;7.22;;;5.43;;
7557;SDS011;3820;51.098;13.716;2023-06-10T06:31:09;7.90;;;6.00;;
7557;SDS011;3820;51.098;13.716;2023-06-10T06:33:35;8.07;;;6.03;;
7557;SDS011;3820;51.098;13.716;2023-06-10T06:36:03;7.90;;;5.95;;
7557;SDS011;3820;51.098;13.716;2023-06-10T06:38:30;6.15;;;5.13;;
7557;SDS011;3820;51.098;13.716;2023-06-10T06:40:56;7.47;;;5.75;;
7557;SDS011;3820;51.098;13.716;2023-06-10T06:43:28;7.18;;;5.93;;
7557;SDS011;3820;51.098;13.716;2023-06-10T06:45:57;6.18;;;5.45;;
7557;SDS011;3820;51.098;13.716;2023-06-10T06:48:24;6.10;;;5.47;;
7557;SDS011;3820;51.098;13.716;2023-06-10T06:50:51;6.07;;;5.47;;
7557;SDS011;3820;51.098;13.716;2023-06-10T06:53:17;6.97;;;5.30;;
7557;SDS011;3820;51.098;13.716;2023-06-10T06:55:44;5.93;;;4.95;;
7557;SDS011;3820;51.098;13.716;2023-06-10T06:58:11;4.82;;;4.00;;
7557;SDS011;3820;51.098;13.716;2023-06-10T07:00:37;6.68;;;4.10;;
7557;SDS011;3820;51.098;13.716;2023-06-10T07:03:04;4.70;;;4.03;;
7557;SDS011;3820;51.098;13.716;2023-06-10T07:05:31;3.50;;;3.17;;
7557;SDS011;3820;51.098;13.716;2023-06-10T07:07:58;3.88;;;3.50;;
7557;SDS011;3820;51.098;13.716;2023-06-10T07:10:26;5.13;;;3.90;;
7557;SDS011;3820;51.098;13.716;2023-06-10T07:12:53;4.60;;;3.80;;
7557;SDS011;3820;51.098;13.716;2023-06-10T07:15:20;4.32;;;3.92;;
7557;SDS011;3820;51.098;13.716;2023-06-10T07:17:47;5.03;;;4.00;;
7557;SDS011;3820;51.098;13.716;2023-06-10T07:20:14;4.63;;;3.78;;
7557;SDS011;3820;51.098;13.716;2023-06-10T07:22:42;4.10;;;3.55;;
7557;SDS011;3820;51.098;13.716;2023-06-10T07:25:09;4.65;;;3.88;;
7557;SDS011;3820;51.098;13.716;2023-06-10T07:27:36;4.82;;;3.78;;
7557;SDS011;3820;51.098;13.716;2023-06-10T07:30:04;6.32;;;4.65;;
7557;SDS011;3820;51.098;13.716;2023-06-10T07:32:33;5.30;;;3.80;;
7557;SDS011;3820;51.098;13.716;2023-06-10T07:35:00;5.20;;;3.80;;
7557;SDS011;3820;51.098;13.716;2023-06-10T07:37:27;5.38;;;4.22;;
7557;SDS011;3820;51.098;13.716;2023-06-10T07:39:53;5.45;;;4.13;;
7557;SDS011;3820;51.098;13.716;2023-06-10T07:42:21;5.20;;;4.25;;
7557;SDS011;3820;51.098;13.716;2023-06-10T07:44:48;4.80;;;4.30;;
7557;SDS011;3820;51.098;13.716;2023-06-10T07:47:15;4.20;;;3.72;;
7557;SDS011;3820;51.098;13.716;2023-06-10T07:49:42;4.65;;;4.10;;
7557;SDS011;3820;51.098;13.716;2023-06-10T07:52:09;4.85;;;4.05;;
7557;SDS011;3820;51.098;13.716;2023-06-10T07:54:35;6.28;;;4.25;;
7557;SDS011;3820;51.098;13.716;2023-06-10T07:57:02;5.00;;;3.95;;
7557;SDS011;3820;51.098;13.716;2023-06-10T07:59:29;5.63;;;4.10;;
7557;SDS011;3820;51.098;13.716;2023-06-10T08:01:56;5.28;;;4.22;;
7557;SDS011;3820;51.098;13.716;2023-06-10T08:04:23;4.82;;;4.25;;
7557;SDS011;3820;51.098;13.716;2023-06-10T08:06:50;4.50;;;4.10;;
7557;SDS011;3820;51.098;13.716;2023-06-10T08:09:16;4.32;;;3.60;;
7557;SDS011;3820;51.098;13.716;2023-06-10T08:11:46;4.57;;;3.58;;
7557;SDS011;3820;51.098;13.716;2023-06-10T08:14:13;4.15;;;3.75;;
7557;SDS011;3820;51.098;13.716;2023-06-10T08:16:40;4.22;;;3.83;;
7557;SDS011;3820;51.098;13.716;2023-06-10T08:19:06;5.38;;;4.20;;
7557;SDS011;3820;51.098;13.716;2023-06-10T08:21:35;5.70;;;4.13;;
7557;SDS011;3820;51.098;13.716;2023-06-10T08:24:06;4.47;;;4.07;;
7557;SDS011;3820;51.098;13.716;2023-06-10T08:26:33;5.15;;;4.20;;
7557;SDS011;3820;51.098;13.716;2023-06-10T08:29:00;5.40;;;4.88;;
7557;SDS011;3820;51.098;13.716;2023-06-10T08:31:27;6.65;;;4.63;;
7557;SDS011;3820;51.098;13.716;2023-06-10T08:33:54;5.45;;;4.88;;
7557;SDS011;3820;51.098;13.716;2023-06-10T08:36:21;4.78;;;4.20;;
7557;SDS011;3820;51.098;13.716;2023-06-10T08:38:48;5.53;;;4.57;;
7557;SDS011;3820;51.098;13.716;2023-06-10T08:41:14;5.43;;;4.50;;
7557;SDS011;3820;51.098;13.716;2023-06-10T08:43:45;4.75;;;4.25;;
7557;SDS011;3820;51.098;13.716;2023-06-10T08:46:17;4.93;;;4.45;;
7557;SDS011;3820;51.098;13.716;2023-06-10T08:48:44;5.57;;;4.68;;
7557;SDS011;3820;51.098;13.716;2023-06-10T08:51:11;4.63;;;4.18;;
7557;SDS011;3820;51.098;13.716;2023-06-10T08:53:42;4.28;;;3.88;;
7557;SDS011;3820;51.098;13.716;2023-06-10T08:56:15;6.50;;;4.68;;
7557;SDS011;3820;51.098;13.716;2023-06-10T08:58:42;4.38;;;3.97;;
7557;SDS011;3820;51.098;13.716;2023-06-10T09:01:09;4.45;;;4.05;;
7557;SDS011;3820;51.098;13.716;2023-06-10T09:03:37;4.50;;;3.97;;
7557;SDS011;3820;51.098;13.716;2023-06-10T09:06:04;5.47;;;4.00;;
7557;SDS011;3820;51.098;13.716;2023-06-10T09:08:33;5.18;;;3.92;;
7557;SDS011;3820;51.098;13.716;2023-06-10T09:11:00;4.60;;;3.90;;
7557;SDS011;3820;51.098;13.716;2023-06-10T09:13:28;4.10;;;3.70;;
7557;SDS011;3820;51.098;13.716;2023-06-10T09:15:55;5.32;;;4.22;;
7557;SDS011;3820;51.098;13.716;2023-06-10T09:18:28;4.47;;;3.80;;
7557;SDS011;3820;51.098;13.716;2023-06-10T09:20:55;4.28;;;3.75;;
7557;SDS011;3820;51.098;13.716;2023-06-10T09:23:21;4.38;;;3.45;;
7557;SDS011;3820;51.098;13.716;2023-06-10T09:25:55;6.65;;;4.18;;
7557;SDS011;3820;51.098;13.716;2023-06-10T09:28:24;4.25;;;3.60;;
7557;SDS011;3820;51.098;13.716;2023-06-10T09:31:01;5.05;;;4.03;;
7557;SDS011;3820;51.098;13.716;2023-06-10T09:33:29;4.22;;;3.70;;
7557;SDS011;3820;51.098;13.716;2023-06-10T09:35:56;4.13;;;3.60;;
7557;SDS011;3820;51.098;13.716;2023-06-10T09:38:31;5.18;;;4.03;;
7557;SDS011;3820;51.098;13.716;2023-06-10T09:40:59;4.80;;;4.03;;
7557;SDS011;3820;51.098;13.716;2023-06-10T09:43:38;5.78;;;3.15;;
7557;SDS011;3820;51.098;13.716;2023-06-10T09:46:06;4.22;;;3.67;;
7557;SDS011;3820;51.098;13.716;2023-06-10T09:48:40;4.05;;;3.40;;
7557;SDS011;3820;51.098;13.716;2023-06-10T09:51:11;4.47;;;3.50;;
7557;SDS011;3820;51.098;13.716;2023-06-10T09:53:38;4.32;;;3.60;;
7557;SDS011;3820;51.098;13.716;2023-06-10T09:56:06;3.67;;;3.38;;
7557;SDS011;3820;51.098;13.716;2023-06-10T09:58:36;4.75;;;3.30;;
7557;SDS011;3820;51.098;13.716;2023-06-10T10:01:12;4.10;;;3.33;;
7557;SDS011;3820;51.098;13.716;2023-06-10T10:03:43;3.95;;;3.45;;
7557;SDS011;3820;51.098;13.716;2023-06-10T10:06:12;4.15;;;3.30;;
7557;SDS011;3820;51.098;13.716;2023-06-10T10:08:40;4.90;;;3.53;;
7557;SDS011;3820;51.098;13.716;2023-06-10T10:11:07;4.13;;;3.72;;
7557;SDS011;3820;51.098;13.716;2023-06-10T10:13:34;5.13;;;4.13;;
7557;SDS011;3820;51.098;13.716;2023-06-10T10:16:03;5.03;;;4.22;;
7557;SDS011;3820;51.098;13.716;2023-06-10T10:18:32;4.60;;;4.10;;
7557;SDS011;3820;51.098;13.716;2023-06-10T10:21:03;5.30;;;4.40;;
7557;SDS011;3820;51.098;13.716;2023-06-10T10:23:36;4.97;;;4.20;;
7557;SDS011;3820;51.098;13.716;2023-06-10T10:26:07;5.25;;;4.07;;
7557;SDS011;3820;51.098;13.716;2023-06-10T10:28:37;7.45;;;4.30;;
7557;SDS011;3820;51.098;13.716;2023-06-10T10:31:09;4.53;;;4.07;;
7557;SDS011;3820;51.098;13.716;2023-06-10T10:33:58;4.50;;;4.03;;
7557;SDS011;3820;51.098;13.716;2023-06-10T10:36:25;5.95;;;4.18;;
7557;SDS011;3820;51.098;13.716;2023-06-10T10:38:54;4.85;;;4.03;;
7557;SDS011;3820;51.098;13.716;2023-06-10T10:41:20;5.38;;;4.25;;
7557;SDS011;3820;51.098;13.716;2023-06-10T10:43:47;4.97;;;4.40;;
7557;SDS011;3820;51.098;13.716;2023-06-10T10:46:15;6.35;;;4.65;;
7557;SDS011;3820;51.098;13.716;2023-06-10T10:48:44;5.07;;;4.18;;
7557;SDS011;3820;51.098;13.716;2023-06-10T10:51:11;5.93;;;4.38;;
7557;SDS011;3820;51.098;13.716;2023-06-10T10:53:38;5.55;;;4.20;;
7557;SDS011;3820;51.098;13.716;2023-06-10T10:56:07;4.95;;;4.07;;
7557;SDS011;3820;51.098;13.716;2023-06-10T10:58:37;5.25;;;4.15;;
7557;SDS011;3820;51.098;13.716;2023-06-10T11:01:11;5.82;;;4.43;;
7557;SDS011;3820;51.098;13.716;2023-06-10T11:03:42;5.20;;;4.60;;
7557;SDS011;3820;51.098;13.716;2023-06-10T11:06:14;5.57;;;4.43;;
7557;SDS011;3820;51.098;13.716;2023-06-10T11:11:17;6.60;;;4.82;;
7557;SDS011;3820;51.098;13.716;2023-06-10T11:13:59;5.47;;;4.70;;
7557;SDS011;3820;51.098;13.716;2023-06-10T11:16:40;5.05;;;4.30;;
7557;SDS011;3820;51.098;13.716;2023-06-10T11:19:09;5.28;;;4.38;;
7557;SDS011;3820;51.098;13.716;2023-06-10T11:21:57;4.93;;;4.30;;
7557;SDS011;3820;51.098;13.716;2023-06-10T11:24:25;5.13;;;4.10;;
7557;SDS011;3820;51.098;13.716;2023-06-10T11:26:52;5.35;;;4.50;;
7557;SDS011;3820;51.098;13.716;2023-06-10T11:29:19;5.50;;;4.20;;
7557;SDS011;3820;51.098;13.716;2023-06-10T11:31:50;5.10;;;4.50;;
7557;SDS011;3820;51.098;13.716;2023-06-10T11:34:21;5.18;;;4.30;;
7557;SDS011;3820;51.098;13.716;2023-06-10T11:36:49;6.45;;;4.15;;
7557;SDS011;3820;51.098;13.716;2023-06-10T11:39:16;5.70;;;4.05;;
7557;SDS011;3820;51.098;13.716;2023-06-10T11:41:44;5.97;;;4.45;;
7557;SDS011;3820;51.098;13.716;2023-06-10T11:44:12;5.97;;;4.55;;
7557;SDS011;3820;51.098;13.716;2023-06-10T11:46:45;6.15;;;4.70;;
7557;SDS011;3820;51.098;13.716;2023-06-10T11:49:13;5.63;;;4.57;;
7557;SDS011;3820;51.098;13.716;2023-06-10T11:51:41;5.68;;;4.15;;
7557;SDS011;3820;51.098;13.716;2023-06-10T11:54:15;5.38;;;4.45;;
7557;SDS011;3820;51.098;13.716;2023-06-10T11:56:42;4.70;;;4.18;;
7557;SDS011;3820;51.098;13.716;2023-06-10T11:59:09;5.22;;;4.13;;
7557;SDS011;3820;51.098;13.716;2023-06-10T12:01:36;6.97;;;5.22;;
7557;SDS011;3820;51.098;13.716;2023-06-10T12:04:08;6.57;;;4.25;;
7557;SDS011;3820;51.098;13.716;2023-06-10T12:06:41;4.70;;;4.18;;
7557;SDS011;3820;51.098;13.716;2023-06-10T12:11:59;6.35;;;4.75;;
7557;SDS011;3820;51.098;13.716;2023-06-10T12:17:20;5.28;;;4.03;;
7557;SDS011;3820;51.098;13.716;2023-06-10T12:19:49;5.38;;;4.20;;
7557;SDS011;3820;51.098;13.716;2023-06-10T12:22:17;5.78;;;4.50;;
7557;SDS011;3820;51.098;13.716;2023-06-10T12:24:56;5.13;;;4.20;;
7557;SDS011;3820;51.098;13.716;2023-06-10T12:27:25;4.68;;;4.10;;
7557;SDS011;3820;51.098;13.716;2023-06-10T12:29:52;5.88;;;4.50;;
7557;SDS011;3820;51.098;13.716;2023-06-10T12:32:21;6.93;;;5.20;;
7557;SDS011;3820;51.098;13.716;2023-06-10T12:35:02;6.60;;;4.88;;
7557;SDS011;3820;51.098;13.716;2023-06-10T12:37:33;5.13;;;4.30;;
7557;SDS011;3820;51.098;13.716;2023-06-10T12:40:00;4.80;;;4.15;;
7557;SDS011;3820;51.098;13.716;2023-06-10T12:42:29;4.90;;;4.30;;
7557;SDS011;3820;51.098;13.716;2023-06-10T12:44:57;4.95;;;3.97;;
7557;SDS011;3820;51.098;13.716;2023-06-10T12:47:30;4.68;;;4.18;;
7557;SDS011;3820;51.098;13.716;2023-06-10T12:50:02;4.95;;;3.65;;
7557;SDS011;3820;51.098;13.716;2023-06-10T12:52:31;4.80;;;3.92;;
7557;SDS011;3820;51.098;13.716;2023-06-10T12:54:58;5.07;;;4.07;;
7557;SDS011;3820;51.098;13.716;2023-06-10T12:57:27;5.70;;;4.45;;
7557;SDS011;3820;51.098;13.716;2023-06-10T12:59:53;5.38;;;4.30;;
7557;SDS011;3820;51.098;13.716;2023-06-10T13:02:20;4.60;;;4.05;;
7557;SDS011;3820;51.098;13.716;2023-06-10T13:04:50;4.88;;;4.30;;
7557;SDS011;3820;51.098;13.716;2023-06-10T13:07:17;4.72;;;4.22;;
7557;SDS011;3820;51.098;13.716;2023-06-10T13:09:43;6.18;;;4.32;;
7557;SDS011;3820;51.098;13.716;2023-06-10T13:12:10;7.90;;;4.70;;
7557;SDS011;3820;51.098;13.716;2023-06-10T13:14:42;5.45;;;4.20;;
7557;SDS011;3820;51.098;13.716;2023-06-10T13:17:08;4.80;;;4.30;;
7557;SDS011;3820;51.098;13.716;2023-06-10T13:19:35;4.72;;;3.92;;
7557;SDS011;3820;51.098;13.716;2023-06-10T13:22:03;5.80;;;4.30;;
7557;SDS011;3820;51.098;13.716;2023-06-10T13:24:29;5.45;;;4.10;;
7557;SDS011;3820;51.098;13.716;2023-06-10T13:26:56;4.32;;;3.92;;
7557;SDS011;3820;51.098;13.716;2023-06-10T13:29:23;3.88;;;3.35;;
7557;SDS011;3820;51.098;13.716;2023-06-10T13:31:49;4.72;;;3.60;;
7557;SDS011;3820;51.098;13.716;2023-06-10T13:34:16;4.07;;;3.65;;
7557;SDS011;3820;51.098;13.716;2023-06-10T13:36:48;3.65;;;3.35;;
7557;SDS011;3820;51.098;13.716;2023-06-10T13:39:15;4.28;;;3.88;;
7557;SDS011;3820;51.098;13.716;2023-06-10T13:41:41;4.00;;;3.60;;
7557;SDS011;3820;51.098;13.716;2023-06-10T13:44:08;3.13;;;2.83;;
7557;SDS011;3820;51.098;13.716;2023-06-10T13:46:34;5.22;;;3.47;;
7557;SDS011;3820;51.098;13.716;2023-06-10T13:49:01;4.50;;;3.55;;
7557;SDS011;3820;51.098;13.716;2023-06-10T13:51:28;3.55;;;3.03;;
7557;SDS011;3820;51.098;13.716;2023-06-10T13:53:55;4.78;;;2.83;;
7557;SDS011;3820;51.098;13.716;2023-06-10T13:56:21;6.45;;;3.13;;
7557;SDS011;3820;51.098;13.716;2023-06-10T13:58:49;4.68;;;3.22;;
7557;SDS011;3820;51.098;13.716;2023-06-10T14:01:15;3.83;;;2.92;;
7557;SDS011;3820;51.098;13.716;2023-06-10T14:03:42;3.58;;;3.25;;
7557;SDS011;3820;51.098;13.716;2023-06-10T14:06:08;3.60;;;2.92;;
7557;SDS011;3820;51.098;13.716;2023-06-10T14:08:36;3.47;;;3.00;;
7557;SDS011;3820;51.098;13.716;2023-06-10T14:11:02;3.33;;;3.00;;
7557;SDS011;3820;51.098;13.716;2023-06-10T14:13:30;3.58;;;3.22;;
7557;SDS011;3820;51.098;13.716;2023-06-10T14:15:57;3.92;;;3.30;;
7557;SDS011;3820;51.098;13.716;2023-06-10T14:18:24;3.92;;;3.50;;
7557;SDS011;3820;51.098;13.716;2023-06-10T14:20:51;4.03;;;3.25;;
7557;SDS011;3820;51.098;13.716;2023-06-10T14:23:17;4.60;;;2.97;;
7557;SDS011;3820;51.098;13.716;2023-06-10T14:25:44;4.07;;;3.25;;
7557;SDS011;3820;51.098;13.716;2023-06-10T14:28:14;3.90;;;3.20;;
7557;SDS011;3820;51.098;13.716;2023-06-10T14:30:40;5.88;;;3.13;;
7557;SDS011;3820;51.098;13.716;2023-06-10T14:33:07;4.82;;;3.08;;
7557;SDS011;3820;51.098;13.716;2023-06-10T14:35:33;4.55;;;3.38;;
7557;SDS011;3820;51.098;13.716;2023-06-10T14:38:00;3.70;;;3.40;;
7557;SDS011;3820;51.098;13.716;2023-06-10T14:40:27;3.78;;;2.92;;
7557;SDS011;3820;51.098;13.716;2023-06-10T14:42:55;3.55;;;3.17;;
7557;SDS011;3820;51.098;13.716;2023-06-10T14:45:22;3.67;;;3.38;;
7557;SDS011;3820;51.098;13.716;2023-06-10T14:47:48;3.95;;;3.10;;
7557;SDS011;3820;51.098;13.716;2023-06-10T14:50:15;3.97;;;3.25;;
7557;SDS011;3820;51.098;13.716;2023-06-10T14:52:43;4.15;;;3.47;;
7557;SDS011;3820;51.098;13.716;2023-06-10T14:55:09;5.10;;;3.60;;
7557;SDS011;3820;51.098;13.716;2023-06-10T14:57:36;3.97;;;2.92;;
7557;SDS011;3820;51.098;13.716;2023-06-10T15:00:03;4.53;;;3.50;;
7557;SDS011;3820;51.098;13.716;2023-06-10T15:02:30;4.07;;;3.55;;
7557;SDS011;3820;51.098;13.716;2023-06-10T15:04:57;3.85;;;3.30;;
7557;SDS011;3820;51.098;13.716;2023-06-10T15:07:24;3.97;;;3.58;;
7557;SDS011;3820;51.098;13.716;2023-06-10T15:09:51;4.60;;;3.60;;
7557;SDS011;3820;51.098;13.716;2023-06-10T15:12:17;5.72;;;4.55;;
7557;SDS011;3820;51.098;13.716;2023-06-10T15:14:44;5.43;;;4.10;;